European Causeway — C6RG7 — position and weather

sailwx.info

Track history (hours):
 
Tides and Currents Weather Stations Pressure Air Temp Water Temp Dewpoint Dewpoint Depression Visibility Wind Speed Wind Dir Waves Ship Positions

European Causeway

Operator: P & O Irish Sea

Last reported at 2017-Aug-24 07:00 UTC. Time now 2017-Aug-24 06:59 UTC.
Position N 54°55' W 005°34'.

Length 165 m; draft 5.5 m.

Type: Ship (hazmat cat A). MMSI: 311027000.

Date/timePositionNaut miles runAvg speedWind from/ knotsBaromVisibWave heightAir tempDewpointWater temp
2017-Aug-24 07:00N 54°55' W 005°34'917.1
2017-Aug-24 06:30N 54°51' W 005°48'0 0.4
2017-Aug-24 06:00N 54°51' W 005°48'0 0.0
2017-Aug-24 05:30N 54°51' W 005°48'0 0.0
2017-Aug-24 05:00N 54°51' W 005°48'4 8.5
2017-Aug-24 04:30N 54°53' W 005°42'918.7
2017-Aug-24 04:01N 54°57' W 005°27'917.7
2017-Aug-24 03:31N 55°01' W 005°13'714.2
2017-Aug-24 03:00N 54°58' W 005°02'1 1.0
2017-Aug-24 02:29N 54°58' W 005°01'0 0.0
2017-Aug-24 01:59N 54°58' W 005°01'0 0.0
2017-Aug-24 01:29N 54°58' W 005°01'0 0.0
2017-Aug-24 00:59N 54°58' W 005°01'5 9.0
2017-Aug-24 00:25N 55°02' W 005°07'818.3
2017-Aug-24 00:00N 54°59' W 005°19'918.6
2017-Aug-23 23:30N 54°55' W 005°34'917.4
2017-Aug-23 23:00N 54°51' W 005°48'0 0.4
2017-Aug-23 22:30N 54°51' W 005°48'0 0.0
2017-Aug-23 22:00N 54°51' W 005°48'0 0.0
2017-Aug-23 21:30N 54°51' W 005°48'0 0.0
2017-Aug-23 21:01N 54°51' W 005°48'510.7
2017-Aug-23 20:30N 54°53' W 005°40'918.2
2017-Aug-23 20:00N 54°58' W 005°25'1019.4
2017-Aug-23 19:30N 55°02' W 005°10'612.9
2017-Aug-23 19:00N 54°58' W 005°01'0 0.1
2017-Aug-23 18:30N 54°58' W 005°01'0 0.0
2017-Aug-23 17:59N 54°58' W 005°01'0 0.4
2017-Aug-23 17:30N 54°58' W 005°01'611.5
2017-Aug-23 17:00N 55°01' W 005°09'919.1
2017-Aug-23 16:31N 54°57' W 005°24'918.8
2017-Aug-23 16:01N 54°54' W 005°39'611.7
2017-Aug-23 15:31N 54°51' W 005°48'0 0.0
2017-Aug-23 14:55N 54°51' W 005°48'0 0.0
2017-Aug-23 14:30N 54°51' W 005°48'1514.7
2017-Aug-23 13:30N 54°58' W 005°26'917.9
2017-Aug-23 13:00N 55°02' W 005°12'710.2
2017-Aug-23 12:16N 54°58' W 005°01'0 0.0
2017-Aug-23 11:58N 54°58' W 005°01'0 0.1
2017-Aug-23 11:23N 54°58' W 005°01'512.1
2017-Aug-23 10:57N 55°01' W 005°07'818.4
2017-Aug-23 10:30N 54°58' W 005°20'1019.4
2017-Aug-23 10:00N 54°54' W 005°36'813.1
2017-Aug-23 09:25N 54°51' W 005°48'0 0.0
2017-Aug-23 08:58N 54°51' W 005°48'0 0.0
2017-Aug-23 08:28N 54°51' W 005°48'511.1
2017-Aug-23 08:00N 54°54' W 005°40'917.8
2017-Aug-23 07:30N 54°57' W 005°26'917.5
2017-Aug-23 07:00N 55°01' W 005°13'713.5
2017-Aug-23 06:30N 54°58' W 005°02'1 1.5
2017-Aug-23 05:58N 54°58' W 005°01'0 0.0
2017-Aug-23 05:28N 54°58' W 005°01'0 0.2
2017-Aug-23 05:00N 54°58' W 005°01'510.1
2017-Aug-23 04:28N 55°02' W 005°08'919.9
2017-Aug-23 04:00N 54°59' W 005°23'1020.6
2017-Aug-23 03:30N 54°54' W 005°39'612.0
2017-Aug-23 03:00N 54°51' W 005°48'0 0.0
2017-Aug-23 02:30N 54°51' W 005°48'0 0.0
2017-Aug-23 02:00N 54°51' W 005°48'0 0.0
2017-Aug-23 01:30N 54°51' W 005°48'0 0.0
2017-Aug-23 01:00N 54°51' W 005°48'4 7.0
2017-Aug-23 00:30N 54°53' W 005°43'917.5
2017-Aug-23 00:00N 54°57' W 005°30'1018.3
2017-Aug-22 23:28N 55°01' W 005°14'714.9
2017-Aug-22 23:00N 54°59' W 005°02'1 2.7
2017-Aug-22 22:30N 54°58' W 005°01'0 0.0
2017-Aug-22 22:01N 54°58' W 005°01'0 0.0
2017-Aug-22 21:30N 54°58' W 005°01'0 0.0
2017-Aug-22 21:00N 54°58' W 005°01'510.6
2017-Aug-22 20:30N 55°02' W 005°07'816.6
2017-Aug-22 20:01N 54°58' W 005°21'918.3
2017-Aug-22 19:30N 54°54' W 005°35'816.2
2017-Aug-22 19:01N 54°51' W 005°48'0 0.2
2017-Aug-22 18:30N 54°51' W 005°48'0 0.0
2017-Aug-22 18:00N 54°51' W 005°48'0 0.0
2017-Aug-22 17:30N 54°51' W 005°48'510.2
2017-Aug-22 17:00N 54°54' W 005°41'1019.1
2017-Aug-22 16:30N 54°58' W 005°26'1019.1
2017-Aug-22 16:00N 55°02' W 005°10'713.3
2017-Aug-22 15:30N 54°58' W 005°01'0 0.0
2017-Aug-22 15:00N 54°58' W 005°01'0 0.4
2017-Aug-22 14:30N 54°58' W 005°01'612.8
2017-Aug-22 14:00N 55°01' W 005°11'1121.4
2017-Aug-22 13:31N 54°55' W 005°25'916.9
2017-Aug-22 13:00N 54°53' W 005°40'5 9.3
2017-Aug-22 12:27N 54°51' W 005°48'0 0.0
2017-Aug-22 12:00N 54°51' W 005°48'0 0.0
2017-Aug-22 11:30N 54°51' W 005°48'611.3
2017-Aug-22 11:00N 54°54' W 005°40'1019.1
2017-Aug-22 10:30N 54°58' W 005°25'1019.2
2017-Aug-22 10:01N 55°02' W 005°09'612.6
2017-Aug-22 09:30N 54°58' W 005°01'0 0.0
2017-Aug-22 09:00N 54°58' W 005°01'0 0.0
2017-Aug-22 08:30N 54°58' W 005°01'5 9.0
2017-Aug-22 07:55N 55°02' W 005°07'717.7
2017-Aug-22 07:31N 54°59' W 005°19'1019.3
2017-Aug-22 07:00N 54°55' W 005°34'917.3
2017-Aug-22 06:31N 54°51' W 005°48'0 0.3
2017-Aug-22 05:59N 54°51' W 005°48'0 0.0
2017-Aug-22 05:29N 54°51' W 005°48'0 0.0
2017-Aug-22 05:00N 54°51' W 005°48'611.6
2017-Aug-22 04:30N 54°54' W 005°39'918.8
2017-Aug-22 04:00N 54°59' W 005°25'918.7
2017-Aug-22 03:30N 55°02' W 005°10'612.6
2017-Aug-22 03:00N 54°58' W 005°01'0 0.0
2017-Aug-22 02:30N 54°58' W 005°01'0 0.0
2017-Aug-22 02:00N 54°58' W 005°01'0 0.0
2017-Aug-22 01:30N 54°58' W 005°01'0 0.2
2017-Aug-22 00:59N 54°58' W 005°01'612.3
2017-Aug-22 00:30N 55°02' W 005°09'1019.4
2017-Aug-22 00:00N 54°57' W 005°24'918.4
2017-Aug-21 23:31N 54°54' W 005°39'611.8
2017-Aug-21 23:00N 54°51' W 005°48'0 0.0
2017-Aug-21 22:30N 54°51' W 005°48'0 0.0
2017-Aug-21 22:00N 54°51' W 005°48'0 0.0
2017-Aug-21 21:30N 54°51' W 005°48'0 0.0
2017-Aug-21 21:00N 54°51' W 005°48'3 6.2
2017-Aug-21 20:30N 54°53' W 005°44'918.7
2017-Aug-21 20:00N 54°57' W 005°29'1019.0
2017-Aug-21 19:30N 55°01' W 005°14'714.2
2017-Aug-21 19:00N 54°59' W 005°02'1 1.5
2017-Aug-21 18:14N 54°58' W 005°01'0 0.0
2017-Aug-21 17:56N 54°58' W 005°01'0 0.2
2017-Aug-21 17:31N 54°58' W 005°01'611.1
2017-Aug-21 17:00N 55°02' W 005°09'1019.9
2017-Aug-21 16:30N 54°57' W 005°24'1020.6
2017-Aug-21 16:00N 54°53' W 005°40'510.0
2017-Aug-21 15:31N 54°51' W 005°48'0 0.0
2017-Aug-21 15:01N 54°51' W 005°48'0 0.0
2017-Aug-21 14:30N 54°51' W 005°48'4 8.5
2017-Aug-21 14:00N 54°53' W 005°42'1019.4
2017-Aug-21 13:30N 54°58' W 005°27'918.7
2017-Aug-21 13:00N 55°01' W 005°12'714.1
2017-Aug-21 12:30N 54°58' W 005°01'0 0.0
2017-Aug-21 12:00N 54°58' W 005°01'0 0.1
2017-Aug-21 11:30N 54°58' W 005°01'611.6
2017-Aug-21 11:00N 55°02' W 005°09'918.8
2017-Aug-21 10:30N 54°57' W 005°23'918.5
2017-Aug-21 10:00N 54°53' W 005°38'612.5
2017-Aug-21 09:30N 54°51' W 005°48'0 0.0
2017-Aug-21 09:00N 54°51' W 005°48'0 0.0
2017-Aug-21 08:30N 54°51' W 005°48'5 9.9
2017-Aug-21 08:00N 54°54' W 005°40'918.8
2017-Aug-21 07:30N 54°58' W 005°26'1019.5
2017-Aug-21 07:00N 55°01' W 005°10'711.6
2017-Aug-21 06:26N 54°58' W 005°01'0 0.0
2017-Aug-21 05:59N 54°58' W 005°01'0 0.0
2017-Aug-21 05:29N 54°58' W 005°01'0 0.0
2017-Aug-21 05:01N 54°58' W 005°01'5 9.3
2017-Aug-21 04:26N 55°01' W 005°08'817.7
2017-Aug-21 04:01N 54°59' W 005°20'918.5
2017-Aug-21 03:30N 54°55' W 005°35'817.0
2017-Aug-21 03:01N 54°51' W 005°48'0 0.4
2017-Aug-21 02:30N 54°51' W 005°48'0 0.0
2017-Aug-21 02:01N 54°51' W 005°48'0 0.0
2017-Aug-21 01:31N 54°51' W 005°48'0 0.0
2017-Aug-21 01:01N 54°51' W 005°48'0 0.0
2017-Aug-21 00:31N 54°51' W 005°48'0 0.0
2017-Aug-21 00:00N 54°51' W 005°48'511.1
2017-Aug-20 23:31N 54°53' W 005°39'1019.5
2017-Aug-20 23:01N 54°58' W 005°24'1019.2
2017-Aug-20 22:31N 55°02' W 005°09'610.3
2017-Aug-20 21:55N 54°58' W 005°01'0 0.0
2017-Aug-20 21:23N 54°58' W 005°01'0 0.0
2017-Aug-20 21:00N 54°58' W 005°01'611.5
2017-Aug-20 20:31N 55°01' W 005°09'918.2
2017-Aug-20 20:00N 54°58' W 005°23'918.9
2017-Aug-20 19:31N 54°54' W 005°38'612.7
2017-Aug-20 19:00N 54°51' W 005°48'0 0.0
2017-Aug-20 18:30N 54°51' W 005°48'0 0.0
2017-Aug-20 18:00N 54°51' W 005°48'0 0.0
2017-Aug-20 17:30N 54°51' W 005°48'612.8
2017-Aug-20 17:00N 54°54' W 005°39'1020.6
2017-Aug-20 16:30N 54°59' W 005°22'1116.1
2017-Aug-20 15:48N 54°59' W 005°02'1 4.6
2017-Aug-20 15:29N 54°58' W 005°01'0 0.0
2017-Aug-20 15:00N 54°58' W 005°01'0 0.0
2017-Aug-20 14:26N 54°58' W 005°01'511.0
2017-Aug-20 13:56N 55°02' W 005°08'819.3
2017-Aug-20 13:30N 54°58' W 005°21'918.7
2017-Aug-20 13:00N 54°54' W 005°35'815.3
2017-Aug-20 12:31N 54°51' W 005°48'0 0.2
2017-Aug-20 11:59N 54°51' W 005°48'0 0.0
2017-Aug-20 11:30N 54°51' W 005°48'4 8.5
2017-Aug-20 11:00N 54°53' W 005°42'1121.7
2017-Aug-20 10:30N 54°58' W 005°25'1020.8
2017-Aug-20 10:00N 55°02' W 005°08'612.0
2017-Aug-20 09:30N 54°58' W 005°01'0 0.0
2017-Aug-20 09:00N 54°58' W 005°01'0 0.0
2017-Aug-20 08:30N 54°58' W 005°01'5 9.3
2017-Aug-20 07:57N 55°02' W 005°07'818.0
2017-Aug-20 07:30N 54°58' W 005°20'918.2
2017-Aug-20 07:00N 54°55' W 005°34'917.1
2017-Aug-20 06:30N 54°51' W 005°48'0 0.4
2017-Aug-20 06:01N 54°51' W 005°48'0 0.0
2017-Aug-20 05:30N 54°51' W 005°48'0 0.0
2017-Aug-20 05:00N 54°51' W 005°48'0 0.0
2017-Aug-20 04:30N 54°51' W 005°48'0 0.0
2017-Aug-20 04:00N 54°51' W 005°48'0 0.0
2017-Aug-20 03:31N 54°51' W 005°48'0 0.0
2017-Aug-20 03:00N 54°51' W 005°48'0 0.0
2017-Aug-20 02:30N 54°51' W 005°48'0 0.0
2017-Aug-20 02:00N 54°51' W 005°48'0 0.0
2017-Aug-20 01:30N 54°51' W 005°48'0 0.0
2017-Aug-20 01:00N 54°51' W 005°48'0 0.0
2017-Aug-20 00:30N 54°51' W 005°48'0 0.0
2017-Aug-20 00:01N 54°51' W 005°48'0 0.0
2017-Aug-19 23:30N 54°51' W 005°48'0 0.0
2017-Aug-19 23:00N 54°51' W 005°48'0 0.0
2017-Aug-19 22:30N 54°51' W 005°48'0 0.0
2017-Aug-19 22:00N 54°51' W 005°48'0 0.0
2017-Aug-19 21:30N 54°51' W 005°48'0 0.0
2017-Aug-19 21:00N 54°51' W 005°48'5 9.8
2017-Aug-19 20:31N 54°53' W 005°41'918.5
2017-Aug-19 20:00N 54°57' W 005°26'917.5
2017-Aug-19 19:30N 55°01' W 005°12'713.3
2017-Aug-19 19:00N 54°58' W 005°02'1 1.3
2017-Aug-19 18:30N 54°58' W 005°01'0 0.0
2017-Aug-19 18:00N 54°58' W 005°01'0 0.0
2017-Aug-19 17:31N 54°58' W 005°01'5 9.3
2017-Aug-19 16:57N 55°02' W 005°07'817.8
2017-Aug-19 16:31N 54°58' W 005°20'1019.4
2017-Aug-19 16:01N 54°54' W 005°35'816.3
2017-Aug-19 15:31N 54°51' W 005°48'0 0.1
2017-Aug-19 15:00N 54°51' W 005°48'5 5.3
2017-Aug-19 14:00N 54°54' W 005°40'1020.4
2017-Aug-19 13:30N 54°58' W 005°24'1019.8
2017-Aug-19 13:00N 55°02' W 005°08'610.2
2017-Aug-19 12:26N 54°58' W 005°01'0 0.0
2017-Aug-19 11:56N 54°58' W 005°01'0 0.0
2017-Aug-19 11:29N 54°58' W 005°01'611.2
2017-Aug-19 10:59N 55°02' W 005°08'919.6
2017-Aug-19 10:30N 54°58' W 005°23'919.0
2017-Aug-19 10:00N 54°54' W 005°38'612.5
2017-Aug-19 09:30N 54°51' W 005°48'0 0.0
2017-Aug-19 09:00N 54°51' W 005°48'0 0.0
2017-Aug-19 08:30N 54°51' W 005°48'5 9.0
2017-Aug-19 08:00N 54°53' W 005°41'918.6
2017-Aug-19 07:30N 54°57' W 005°27'918.2
2017-Aug-19 07:00N 55°01' W 005°13'714.0
2017-Aug-19 06:30N 54°58' W 005°02'0 0.7
2017-Aug-19 05:55N 54°58' W 005°01'0 0.0
2017-Aug-19 05:31N 54°58' W 005°01'0 0.0
2017-Aug-19 04:57N 54°58' W 005°01'511.5
2017-Aug-19 04:30N 55°02' W 005°07'815.7
2017-Aug-19 04:01N 54°58' W 005°19'918.9
2017-Aug-19 03:31N 54°54' W 005°34'917.2
2017-Aug-19 03:01N 54°51' W 005°48'0 0.3
2017-Aug-19 02:31N 54°51' W 005°48'0 0.0
2017-Aug-19 02:01N 54°51' W 005°48'0 0.0
2017-Aug-19 01:31N 54°51' W 005°48'0 0.0
2017-Aug-19 01:01N 54°51' W 005°48'4 8.9
2017-Aug-19 00:30N 54°53' W 005°41'918.5
2017-Aug-19 00:01N 54°58' W 005°27'917.7
2017-Aug-18 23:30N 55°01' W 005°13'714.3
2017-Aug-18 23:01N 54°58' W 005°02'1 1.2
2017-Aug-18 22:30N 54°58' W 005°01'0 0.0
2017-Aug-18 21:51N 54°58' W 005°01'0 0.0
2017-Aug-18 21:30N 54°58' W 005°01'0 0.0
2017-Aug-18 21:00N 54°58' W 005°01'5 9.4
2017-Aug-18 20:28N 55°02' W 005°07'817.2
2017-Aug-18 20:00N 54°59' W 005°20'917.8
2017-Aug-18 19:30N 54°55' W 005°33'917.8
2017-Aug-18 19:00N 54°51' W 005°48'0 0.7
2017-Aug-18 18:20N 54°51' W 005°48'0 0.0
2017-Aug-18 17:50N 54°51' W 005°48'1 2.7
2017-Aug-18 17:30N 54°52' W 005°47'1021.0
2017-Aug-18 17:00N 54°56' W 005°31'1122.1
2017-Aug-18 16:30N 55°01' W 005°14'714.3
2017-Aug-18 16:00N 54°59' W 005°02'1 2.2
2017-Aug-18 15:25N 54°58' W 005°01'0 0.0
2017-Aug-18 14:49N 54°58' W 005°01'5 6.1
2017-Aug-18 14:00N 55°02' W 005°06'1121.4
2017-Aug-18 13:30N 54°57' W 005°23'1122.5
2017-Aug-18 13:00N 54°53' W 005°41'4 5.1
2017-Aug-18 12:10N 54°51' W 005°48'0 0.0
2017-Aug-18 11:55N 54°51' W 005°48'0 0.0
2017-Aug-18 11:30N 54°51' W 005°48'612.1
2017-Aug-18 11:00N 54°54' W 005°39'1020.4
2017-Aug-18 10:30N 54°59' W 005°23'1019.4
2017-Aug-18 10:00N 55°02' W 005°07'510.8
2017-Aug-18 09:30N 54°58' W 005°01'0 0.0
2017-Aug-18 09:00N 54°58' W 005°01'0 0.0
2017-Aug-18 08:30N 54°58' W 005°01'510.1
2017-Aug-18 08:00N 55°02' W 005°07'919.0
2017-Aug-18 07:30N 54°58' W 005°22'1019.3
2017-Aug-18 07:00N 54°54' W 005°37'714.0
2017-Aug-18 06:30N 54°51' W 005°48'0 0.0
2017-Aug-18 06:00N 54°51' W 005°48'0 0.0
2017-Aug-18 05:30N 54°51' W 005°48'0 0.7
2017-Aug-18 05:00N 54°51' W 005°48'816.9
2017-Aug-18 04:31N 54°55' W 005°35'1020.1
2017-Aug-18 04:00N 54°59' W 005°19'915.5
2017-Aug-18 03:26N 54°59' W 005°03'2 4.1
2017-Aug-18 02:54N 54°58' W 005°01'0 0.0
2017-Aug-18 02:24N 54°58' W 005°01'0 0.0
2017-Aug-18 01:54N 54°58' W 005°01'0 0.0
2017-Aug-18 01:24N 54°58' W 005°01'0 0.1
2017-Aug-18 01:00N 54°58' W 005°01'610.3
2017-Aug-18 00:28N 55°02' W 005°08'919.2
2017-Aug-18 00:00N 54°58' W 005°22'918.9
2017-Aug-17 23:31N 54°54' W 005°37'714.1
2017-Aug-17 23:01N 54°51' W 005°48'0 0.1
2017-Aug-17 22:31N 54°51' W 005°48'0 0.0
2017-Aug-17 22:00N 54°51' W 005°48'0 0.0
2017-Aug-17 21:30N 54°51' W 005°48'3 5.8
2017-Aug-17 21:00N 54°53' W 005°44'1121.5
2017-Aug-17 20:30N 54°58' W 005°28'1121.8
2017-Aug-17 20:00N 55°02' W 005°10'714.1
2017-Aug-17 19:31N 54°58' W 005°01'0 0.0
2017-Aug-17 19:01N 54°58' W 005°01'0 0.0
2017-Aug-17 18:30N 54°58' W 005°01'0 0.2
2017-Aug-17 18:01N 54°58' W 005°01'713.0
2017-Aug-17 17:30N 55°01' W 005°11'1020.5
2017-Aug-17 17:01N 54°56' W 005°26'1121.3
2017-Aug-17 16:30N 54°53' W 005°44'3 6.0
2017-Aug-17 16:00N 54°51' W 005°48'0 0.0
2017-Aug-17 15:30N 54°51' W 005°48'3 5.3
2017-Aug-17 15:00N 54°53' W 005°44'1020.1
2017-Aug-17 14:30N 54°57' W 005°29'1020.6
2017-Aug-17 14:00N 55°01' W 005°12'612.9
2017-Aug-17 13:30N 54°59' W 005°02'1 2.3
2017-Aug-17 13:00N 54°58' W 005°01'0 0.0
2017-Aug-17 12:30N 54°58' W 005°01'0 0.0
2017-Aug-17 12:00N 54°58' W 005°01'0 0.0
2017-Aug-17 11:30N 54°58' W 005°01'5 9.4
2017-Aug-17 10:58N 55°02' W 005°07'919.1
2017-Aug-17 10:31N 54°58' W 005°21'1019.1
2017-Aug-17 10:01N 54°54' W 005°36'815.3
2017-Aug-17 09:31N 54°51' W 005°48'0 0.3
2017-Aug-17 09:00N 54°51' W 005°48'0 0.0
2017-Aug-17 08:30N 54°51' W 005°48'5 9.2
2017-Aug-17 08:00N 54°54' W 005°41'918.4
2017-Aug-17 07:30N 54°58' W 005°27'918.1
2017-Aug-17 07:00N 55°01' W 005°13'714.4
2017-Aug-17 06:31N 54°58' W 005°02'0 0.6
2017-Aug-17 05:50N 54°58' W 005°01'0 0.0
2017-Aug-17 05:26N 54°58' W 005°01'0 0.0
2017-Aug-17 04:59N 54°58' W 005°01'510.0
2017-Aug-17 04:28N 55°02' W 005°07'817.7
2017-Aug-17 04:01N 54°58' W 005°20'918.8
2017-Aug-17 03:31N 54°55' W 005°35'812.9
2017-Aug-17 02:52N 54°51' W 005°48'0 0.0
2017-Aug-17 02:28N 54°51' W 005°48'0 0.0
2017-Aug-17 01:58N 54°51' W 005°48'0 0.0
2017-Aug-17 01:28N 54°51' W 005°48'0 0.1
2017-Aug-17 01:00N 54°51' W 005°48'714.6
2017-Aug-17 00:31N 54°55' W 005°37'1020.5
2017-Aug-17 00:00N 54°59' W 005°21'1018.1
2017-Aug-16 23:29N 55°01' W 005°04'4 7.0
2017-Aug-16 22:58N 54°58' W 005°01'0 0.0
2017-Aug-16 22:25N 54°58' W 005°01'0 0.0
2017-Aug-16 21:58N 54°58' W 005°01'0 0.0
2017-Aug-16 21:28N 54°58' W 005°01'0 0.0
2017-Aug-16 21:00N 54°58' W 005°01'510.6
2017-Aug-16 20:30N 55°02' W 005°07'918.6
2017-Aug-16 20:00N 54°58' W 005°22'1020.3
2017-Aug-16 19:31N 54°54' W 005°37'713.3
2017-Aug-16 19:00N 54°51' W 005°48'0 0.0
2017-Aug-16 18:30N 54°51' W 005°48'0 0.0
2017-Aug-16 18:00N 54°51' W 005°48'611.6
2017-Aug-16 17:31N 54°54' W 005°39'1020.0
2017-Aug-16 17:00N 54°58' W 005°24'1019.6
2017-Aug-16 16:30N 55°02' W 005°08'611.8
2017-Aug-16 16:00N 54°58' W 005°01'0 0.0
2017-Aug-16 15:30N 54°58' W 005°01'0 0.0
2017-Aug-16 15:00N 54°58' W 005°01'611.6
2017-Aug-16 14:31N 55°02' W 005°08'1020.0
2017-Aug-16 14:01N 54°57' W 005°24'1121.1
2017-Aug-16 13:30N 54°53' W 005°41'5 8.0
2017-Aug-16 12:56N 54°51' W 005°48'0 0.0
2017-Aug-16 12:29N 54°51' W 005°48'0 0.0
2017-Aug-16 12:00N 54°51' W 005°48'510.0
2017-Aug-16 11:31N 54°54' W 005°41'1019.8
2017-Aug-16 11:00N 54°59' W 005°26'1020.4
2017-Aug-16 10:30N 55°02' W 005°09'612.2
2017-Aug-16 10:00N 54°58' W 005°01'0 0.0
2017-Aug-16 09:29N 54°58' W 005°01'0 0.0
2017-Aug-16 08:50N 54°58' W 005°01'0 0.0
2017-Aug-16 08:26N 54°58' W 005°01'511.0
2017-Aug-16 07:57N 55°02' W 005°07'818.3
2017-Aug-16 07:30N 54°58' W 005°20'917.5
2017-Aug-16 07:00N 54°55' W 005°34'816.9
2017-Aug-16 06:30N 54°51' W 005°48'1 1.1
2017-Aug-16 06:01N 54°51' W 005°48'0 0.0
2017-Aug-16 05:31N 54°51' W 005°48'0 0.0
2017-Aug-16 05:01N 54°51' W 005°48'4 7.2
2017-Aug-16 04:30N 54°53' W 005°43'918.6
2017-Aug-16 04:00N 54°57' W 005°29'918.8
2017-Aug-16 03:30N 55°01' W 005°14'714.1
2017-Aug-16 03:00N 54°58' W 005°02'1 2.0
2017-Aug-16 02:30N 54°58' W 005°01'0 0.0
2017-Aug-16 02:00N 54°58' W 005°01'0 0.0
2017-Aug-16 01:30N 54°58' W 005°01'0 0.1
2017-Aug-16 01:00N 54°58' W 005°01'611.8
2017-Aug-16 00:30N 55°02' W 005°09'917.3
2017-Aug-16 00:00N 54°57' W 005°22'1019.2
2017-Aug-15 23:30N 54°54' W 005°37'713.6
2017-Aug-15 23:00N 54°51' W 005°48'0 0.1
2017-Aug-15 22:31N 54°51' W 005°48'0 0.0
2017-Aug-15 22:00N 54°51' W 005°48'0 0.0
2017-Aug-15 21:30N 54°51' W 005°48'0 0.0
2017-Aug-15 21:00N 54°51' W 005°48'4 9.0
2017-Aug-15 20:30N 54°53' W 005°42'816.1
2017-Aug-15 20:01N 54°58' W 005°31'815.6
2017-Aug-15 19:31N 55°02' W 005°18'916.1
2017-Aug-15 18:59N 54°60' W 005°04'3 5.4
2017-Aug-15 18:30N 54°58' W 005°01'0 0.0
2017-Aug-15 18:00N 54°58' W 005°01'0 0.0
2017-Aug-15 17:30N 54°58' W 005°01'5 9.3
2017-Aug-15 16:56N 55°02' W 005°07'818.1
2017-Aug-15 16:31N 54°58' W 005°19'918.1
2017-Aug-15 16:00N 54°54' W 005°33'917.2
2017-Aug-15 15:30N 54°51' W 005°48'0 0.9
2017-Aug-15 15:00N 54°51' W 005°48'0 0.0
2017-Aug-15 14:30N 54°51' W 005°48'5 9.6
2017-Aug-15 14:00N 54°53' W 005°41'816.9
2017-Aug-15 13:30N 54°57' W 005°28'816.9
2017-Aug-15 13:00N 55°00' W 005°14'713.3
2017-Aug-15 12:30N 54°59' W 005°03'2 2.5
2017-Aug-15 11:51N 54°58' W 005°01'0 0.0
2017-Aug-15 11:29N 54°58' W 005°01'5 9.0
2017-Aug-15 10:56N 55°02' W 005°06'716.8
2017-Aug-15 10:30N 54°59' W 005°18'917.2
2017-Aug-15 10:00N 54°55' W 005°32'918.0
2017-Aug-15 09:30N 54°52' W 005°47'1 2.8
2017-Aug-15 09:00N 54°51' W 005°48'0 0.0
2017-Aug-15 08:30N 54°51' W 005°48'4 8.7
2017-Aug-15 08:00N 54°53' W 005°42'917.7
2017-Aug-15 07:31N 54°57' W 005°28'917.7
2017-Aug-15 07:01N 55°01' W 005°14'714.6
2017-Aug-15 06:30N 54°58' W 005°02'1 1.9
2017-Aug-15 06:00N 54°58' W 005°01'0 0.0
2017-Aug-15 05:30N 54°58' W 005°01'0 0.0
2017-Aug-15 05:01N 54°58' W 005°01'510.8
2017-Aug-15 04:31N 55°02' W 005°07'816.5
2017-Aug-15 04:00N 54°58' W 005°20'817.1
2017-Aug-15 03:30N 54°54' W 005°33'917.5
2017-Aug-15 03:01N 54°51' W 005°48'1 1.0
2017-Aug-15 02:30N 54°51' W 005°48'0 0.0
2017-Aug-15 02:01N 54°51' W 005°48'0 0.0
2017-Aug-15 01:30N 54°51' W 005°48'0 0.0
2017-Aug-15 01:01N 54°51' W 005°48'5 9.3
2017-Aug-15 00:30N 54°53' W 005°41'918.9
2017-Aug-15 00:00N 54°57' W 005°26'1019.1
2017-Aug-14 23:30N 55°01' W 005°11'713.7
2017-Aug-14 23:00N 54°58' W 005°01'0 0.2
2017-Aug-14 22:18N 54°58' W 005°01'0 0.0
2017-Aug-14 21:57N 54°58' W 005°01'0 0.0
2017-Aug-14 21:24N 54°58' W 005°01'0 0.1
2017-Aug-14 21:00N 54°58' W 005°01'510.1
2017-Aug-14 20:30N 55°02' W 005°07'817.0
2017-Aug-14 20:00N 54°58' W 005°20'917.8
2017-Aug-14 19:30N 54°55' W 005°34'816.9
2017-Aug-14 19:00N 54°51' W 005°48'0 0.7
2017-Aug-14 18:30N 54°51' W 005°48'0 0.0
2017-Aug-14 18:00N 54°51' W 005°48'0 0.0
2017-Aug-14 17:30N 54°51' W 005°48'611.4
2017-Aug-14 17:00N 54°54' W 005°40'917.4
2017-Aug-14 16:31N 54°58' W 005°26'917.1
2017-Aug-14 16:00N 55°01' W 005°12'714.1
2017-Aug-14 15:30N 54°58' W 005°01'0 0.2
2017-Aug-14 15:00N 54°58' W 005°01'0 0.0
2017-Aug-14 14:30N 54°58' W 005°01'510.2
2017-Aug-14 14:00N 55°02' W 005°07'1019.9
2017-Aug-14 13:30N 54°58' W 005°23'1021.0
2017-Aug-14 13:00N 54°54' W 005°39'611.2
2017-Aug-14 12:30N 54°51' W 005°48'0 0.0
2017-Aug-14 12:00N 54°51' W 005°48'0 0.0
2017-Aug-14 11:30N 54°51' W 005°48'510.2
2017-Aug-14 11:00N 54°54' W 005°40'816.8
2017-Aug-14 10:30N 54°57' W 005°27'917.4
2017-Aug-14 10:00N 55°01' W 005°13'713.9
2017-Aug-14 09:30N 54°58' W 005°02'1 1.6
2017-Aug-14 09:00N 54°58' W 005°01'0 0.0
2017-Aug-14 08:30N 54°58' W 005°01'5 8.5
2017-Aug-14 07:53N 55°02' W 005°07'820.2
2017-Aug-14 07:30N 54°58' W 005°19'1020.3
2017-Aug-14 07:00N 54°54' W 005°36'  
Track history (hours):
 
Tides and Currents Weather Stations Pressure Air Temp Water Temp Dewpoint Dewpoint Depression Visibility Wind Speed Wind Dir Waves Ship Positions

European Causeway

Operator: P & O Irish Sea

Last reported at 2017-Aug-24 07:00 UTC. Time now 2017-Aug-24 06:59 UTC.
Position N 54°55' W 005°34'.

Length 165 m; draft 5.5 m.

Type: Ship (hazmat cat A). MMSI: 311027000.

Date/timePositionNaut miles runAvg speedWind from/ knotsBaromVisibWave heightAir tempDewpointWater temp
2017-Aug-24 07:00N 54°55' W 005°34'917.1
2017-Aug-24 06:30N 54°51' W 005°48'0 0.4
2017-Aug-24 06:00N 54°51' W 005°48'0 0.0
2017-Aug-24 05:30N 54°51' W 005°48'0 0.0
2017-Aug-24 05:00N 54°51' W 005°48'4 8.5
2017-Aug-24 04:30N 54°53' W 005°42'918.7
2017-Aug-24 04:01N 54°57' W 005°27'917.7
2017-Aug-24 03:31N 55°01' W 005°13'714.2
2017-Aug-24 03:00N 54°58' W 005°02'1 1.0
2017-Aug-24 02:29N 54°58' W 005°01'0 0.0
2017-Aug-24 01:59N 54°58' W 005°01'0 0.0
2017-Aug-24 01:29N 54°58' W 005°01'0 0.0
2017-Aug-24 00:59N 54°58' W 005°01'5 9.0
2017-Aug-24 00:25N 55°02' W 005°07'818.3
2017-Aug-24 00:00N 54°59' W 005°19'918.6
2017-Aug-23 23:30N 54°55' W 005°34'917.4
2017-Aug-23 23:00N 54°51' W 005°48'0 0.4
2017-Aug-23 22:30N 54°51' W 005°48'0 0.0
2017-Aug-23 22:00N 54°51' W 005°48'0 0.0
2017-Aug-23 21:30N 54°51' W 005°48'0 0.0
2017-Aug-23 21:01N 54°51' W 005°48'510.7
2017-Aug-23 20:30N 54°53' W 005°40'918.2
2017-Aug-23 20:00N 54°58' W 005°25'1019.4
2017-Aug-23 19:30N 55°02' W 005°10'612.9
2017-Aug-23 19:00N 54°58' W 005°01'0 0.1
2017-Aug-23 18:30N 54°58' W 005°01'0 0.0
2017-Aug-23 17:59N 54°58' W 005°01'0 0.4
2017-Aug-23 17:30N 54°58' W 005°01'611.5
2017-Aug-23 17:00N 55°01' W 005°09'919.1
2017-Aug-23 16:31N 54°57' W 005°24'918.8
2017-Aug-23 16:01N 54°54' W 005°39'611.7
2017-Aug-23 15:31N 54°51' W 005°48'0 0.0
2017-Aug-23 14:55N 54°51' W 005°48'0 0.0
2017-Aug-23 14:30N 54°51' W 005°48'1514.7
2017-Aug-23 13:30N 54°58' W 005°26'917.9
2017-Aug-23 13:00N 55°02' W 005°12'710.2
2017-Aug-23 12:16N 54°58' W 005°01'0 0.0
2017-Aug-23 11:58N 54°58' W 005°01'0 0.1
2017-Aug-23 11:23N 54°58' W 005°01'512.1
2017-Aug-23 10:57N 55°01' W 005°07'818.4
2017-Aug-23 10:30N 54°58' W 005°20'1019.4
2017-Aug-23 10:00N 54°54' W 005°36'813.1
2017-Aug-23 09:25N 54°51' W 005°48'0 0.0
2017-Aug-23 08:58N 54°51' W 005°48'0 0.0
2017-Aug-23 08:28N 54°51' W 005°48'511.1
2017-Aug-23 08:00N 54°54' W 005°40'917.8
2017-Aug-23 07:30N 54°57' W 005°26'917.5
2017-Aug-23 07:00N 55°01' W 005°13'713.5
2017-Aug-23 06:30N 54°58' W 005°02'1 1.5
2017-Aug-23 05:58N 54°58' W 005°01'0 0.0
2017-Aug-23 05:28N 54°58' W 005°01'0 0.2
2017-Aug-23 05:00N 54°58' W 005°01'510.1
2017-Aug-23 04:28N 55°02' W 005°08'919.9
2017-Aug-23 04:00N 54°59' W 005°23'1020.6
2017-Aug-23 03:30N 54°54' W 005°39'612.0
2017-Aug-23 03:00N 54°51' W 005°48'0 0.0
2017-Aug-23 02:30N 54°51' W 005°48'0 0.0
2017-Aug-23 02:00N 54°51' W 005°48'0 0.0
2017-Aug-23 01:30N 54°51' W 005°48'0 0.0
2017-Aug-23 01:00N 54°51' W 005°48'4 7.0
2017-Aug-23 00:30N 54°53' W 005°43'917.5
2017-Aug-23 00:00N 54°57' W 005°30'1018.3
2017-Aug-22 23:28N 55°01' W 005°14'714.9
2017-Aug-22 23:00N 54°59' W 005°02'1 2.7
2017-Aug-22 22:30N 54°58' W 005°01'0 0.0
2017-Aug-22 22:01N 54°58' W 005°01'0 0.0
2017-Aug-22 21:30N 54°58' W 005°01'0 0.0
2017-Aug-22 21:00N 54°58' W 005°01'510.6
2017-Aug-22 20:30N 55°02' W 005°07'816.6
2017-Aug-22 20:01N 54°58' W 005°21'918.3
2017-Aug-22 19:30N 54°54' W 005°35'816.2
2017-Aug-22 19:01N 54°51' W 005°48'0 0.2
2017-Aug-22 18:30N 54°51' W 005°48'0 0.0
2017-Aug-22 18:00N 54°51' W 005°48'0 0.0
2017-Aug-22 17:30N 54°51' W 005°48'510.2
2017-Aug-22 17:00N 54°54' W 005°41'1019.1
2017-Aug-22 16:30N 54°58' W 005°26'1019.1
2017-Aug-22 16:00N 55°02' W 005°10'713.3
2017-Aug-22 15:30N 54°58' W 005°01'0 0.0
2017-Aug-22 15:00N 54°58' W 005°01'0 0.4
2017-Aug-22 14:30N 54°58' W 005°01'612.8
2017-Aug-22 14:00N 55°01' W 005°11'1121.4
2017-Aug-22 13:31N 54°55' W 005°25'916.9
2017-Aug-22 13:00N 54°53' W 005°40'5 9.3
2017-Aug-22 12:27N 54°51' W 005°48'0 0.0
2017-Aug-22 12:00N 54°51' W 005°48'0 0.0
2017-Aug-22 11:30N 54°51' W 005°48'611.3
2017-Aug-22 11:00N 54°54' W 005°40'1019.1
2017-Aug-22 10:30N 54°58' W 005°25'1019.2
2017-Aug-22 10:01N 55°02' W 005°09'612.6
2017-Aug-22 09:30N 54°58' W 005°01'0 0.0
2017-Aug-22 09:00N 54°58' W 005°01'0 0.0
2017-Aug-22 08:30N 54°58' W 005°01'5 9.0
2017-Aug-22 07:55N 55°02' W 005°07'717.7
2017-Aug-22 07:31N 54°59' W 005°19'1019.3
2017-Aug-22 07:00N 54°55' W 005°34'917.3
2017-Aug-22 06:31N 54°51' W 005°48'0 0.3
2017-Aug-22 05:59N 54°51' W 005°48'0 0.0
2017-Aug-22 05:29N 54°51' W 005°48'0 0.0
2017-Aug-22 05:00N 54°51' W 005°48'611.6
2017-Aug-22 04:30N 54°54' W 005°39'918.8
2017-Aug-22 04:00N 54°59' W 005°25'918.7
2017-Aug-22 03:30N 55°02' W 005°10'612.6
2017-Aug-22 03:00N 54°58' W 005°01'0 0.0
2017-Aug-22 02:30N 54°58' W 005°01'0 0.0
2017-Aug-22 02:00N 54°58' W 005°01'0 0.0
2017-Aug-22 01:30N 54°58' W 005°01'0 0.2
2017-Aug-22 00:59N 54°58' W 005°01'612.3
2017-Aug-22 00:30N 55°02' W 005°09'1019.4
2017-Aug-22 00:00N 54°57' W 005°24'918.4
2017-Aug-21 23:31N 54°54' W 005°39'611.8
2017-Aug-21 23:00N 54°51' W 005°48'0 0.0
2017-Aug-21 22:30N 54°51' W 005°48'0 0.0
2017-Aug-21 22:00N 54°51' W 005°48'0 0.0
2017-Aug-21 21:30N 54°51' W 005°48'0 0.0
2017-Aug-21 21:00N 54°51' W 005°48'3 6.2
2017-Aug-21 20:30N 54°53' W 005°44'918.7
2017-Aug-21 20:00N 54°57' W 005°29'1019.0
2017-Aug-21 19:30N 55°01' W 005°14'714.2
2017-Aug-21 19:00N 54°59' W 005°02'1 1.5
2017-Aug-21 18:14N 54°58' W 005°01'0 0.0
2017-Aug-21 17:56N 54°58' W 005°01'0 0.2
2017-Aug-21 17:31N 54°58' W 005°01'611.1
2017-Aug-21 17:00N 55°02' W 005°09'1019.9
2017-Aug-21 16:30N 54°57' W 005°24'1020.6
2017-Aug-21 16:00N 54°53' W 005°40'510.0
2017-Aug-21 15:31N 54°51' W 005°48'0 0.0
2017-Aug-21 15:01N 54°51' W 005°48'0 0.0
2017-Aug-21 14:30N 54°51' W 005°48'4 8.5
2017-Aug-21 14:00N 54°53' W 005°42'1019.4
2017-Aug-21 13:30N 54°58' W 005°27'918.7
2017-Aug-21 13:00N 55°01' W 005°12'714.1
2017-Aug-21 12:30N 54°58' W 005°01'0 0.0
2017-Aug-21 12:00N 54°58' W 005°01'0 0.1
2017-Aug-21 11:30N 54°58' W 005°01'611.6
2017-Aug-21 11:00N 55°02' W 005°09'918.8
2017-Aug-21 10:30N 54°57' W 005°23'918.5
2017-Aug-21 10:00N 54°53' W 005°38'612.5
2017-Aug-21 09:30N 54°51' W 005°48'0 0.0
2017-Aug-21 09:00N 54°51' W 005°48'0 0.0
2017-Aug-21 08:30N 54°51' W 005°48'5 9.9
2017-Aug-21 08:00N 54°54' W 005°40'918.8
2017-Aug-21 07:30N 54°58' W 005°26'1019.5
2017-Aug-21 07:00N 55°01' W 005°10'711.6
2017-Aug-21 06:26N 54°58' W 005°01'0 0.0
2017-Aug-21 05:59N 54°58' W 005°01'0 0.0
2017-Aug-21 05:29N 54°58' W 005°01'0 0.0
2017-Aug-21 05:01N 54°58' W 005°01'5 9.3
2017-Aug-21 04:26N 55°01' W 005°08'817.7
2017-Aug-21 04:01N 54°59' W 005°20'918.5
2017-Aug-21 03:30N 54°55' W 005°35'817.0
2017-Aug-21 03:01N 54°51' W 005°48'0 0.4
2017-Aug-21 02:30N 54°51' W 005°48'0 0.0
2017-Aug-21 02:01N 54°51' W 005°48'0 0.0
2017-Aug-21 01:31N 54°51' W 005°48'0 0.0
2017-Aug-21 01:01N 54°51' W 005°48'0 0.0
2017-Aug-21 00:31N 54°51' W 005°48'0 0.0
2017-Aug-21 00:00N 54°51' W 005°48'511.1
2017-Aug-20 23:31N 54°53' W 005°39'1019.5
2017-Aug-20 23:01N 54°58' W 005°24'1019.2
2017-Aug-20 22:31N 55°02' W 005°09'610.3
2017-Aug-20 21:55N 54°58' W 005°01'0 0.0
2017-Aug-20 21:23N 54°58' W 005°01'0 0.0
2017-Aug-20 21:00N 54°58' W 005°01'611.5
2017-Aug-20 20:31N 55°01' W 005°09'918.2
2017-Aug-20 20:00N 54°58' W 005°23'918.9
2017-Aug-20 19:31N 54°54' W 005°38'612.7
2017-Aug-20 19:00N 54°51' W 005°48'0 0.0
2017-Aug-20 18:30N 54°51' W 005°48'0 0.0
2017-Aug-20 18:00N 54°51' W 005°48'0 0.0
2017-Aug-20 17:30N 54°51' W 005°48'612.8
2017-Aug-20 17:00N 54°54' W 005°39'1020.6
2017-Aug-20 16:30N 54°59' W 005°22'1116.1
2017-Aug-20 15:48N 54°59' W 005°02'1 4.6
2017-Aug-20 15:29N 54°58' W 005°01'0 0.0
2017-Aug-20 15:00N 54°58' W 005°01'0 0.0
2017-Aug-20 14:26N 54°58' W 005°01'511.0
2017-Aug-20 13:56N 55°02' W 005°08'819.3
2017-Aug-20 13:30N 54°58' W 005°21'918.7
2017-Aug-20 13:00N 54°54' W 005°35'815.3
2017-Aug-20 12:31N 54°51' W 005°48'0 0.2
2017-Aug-20 11:59N 54°51' W 005°48'0 0.0
2017-Aug-20 11:30N 54°51' W 005°48'4 8.5
2017-Aug-20 11:00N 54°53' W 005°42'1121.7
2017-Aug-20 10:30N 54°58' W 005°25'1020.8
2017-Aug-20 10:00N 55°02' W 005°08'612.0
2017-Aug-20 09:30N 54°58' W 005°01'0 0.0
2017-Aug-20 09:00N 54°58' W 005°01'0 0.0
2017-Aug-20 08:30N 54°58' W 005°01'5 9.3
2017-Aug-20 07:57N 55°02' W 005°07'818.0
2017-Aug-20 07:30N 54°58' W 005°20'918.2
2017-Aug-20 07:00N 54°55' W 005°34'917.1
2017-Aug-20 06:30N 54°51' W 005°48'0 0.4
2017-Aug-20 06:01N 54°51' W 005°48'0 0.0
2017-Aug-20 05:30N 54°51' W 005°48'0 0.0
2017-Aug-20 05:00N 54°51' W 005°48'0 0.0
2017-Aug-20 04:30N 54°51' W 005°48'0 0.0
2017-Aug-20 04:00N 54°51' W 005°48'0 0.0
2017-Aug-20 03:31N 54°51' W 005°48'0 0.0
2017-Aug-20 03:00N 54°51' W 005°48'0 0.0
2017-Aug-20 02:30N 54°51' W 005°48'0 0.0
2017-Aug-20 02:00N 54°51' W 005°48'0 0.0
2017-Aug-20 01:30N 54°51' W 005°48'0 0.0
2017-Aug-20 01:00N 54°51' W 005°48'0 0.0
2017-Aug-20 00:30N 54°51' W 005°48'0 0.0
2017-Aug-20 00:01N 54°51' W 005°48'0 0.0
2017-Aug-19 23:30N 54°51' W 005°48'0 0.0
2017-Aug-19 23:00N 54°51' W 005°48'0 0.0
2017-Aug-19 22:30N 54°51' W 005°48'0 0.0
2017-Aug-19 22:00N 54°51' W 005°48'0 0.0
2017-Aug-19 21:30N 54°51' W 005°48'0 0.0
2017-Aug-19 21:00N 54°51' W 005°48'5 9.8
2017-Aug-19 20:31N 54°53' W 005°41'918.5
2017-Aug-19 20:00N 54°57' W 005°26'917.5
2017-Aug-19 19:30N 55°01' W 005°12'713.3
2017-Aug-19 19:00N 54°58' W 005°02'1 1.3
2017-Aug-19 18:30N 54°58' W 005°01'0 0.0
2017-Aug-19 18:00N 54°58' W 005°01'0 0.0
2017-Aug-19 17:31N 54°58' W 005°01'5 9.3
2017-Aug-19 16:57N 55°02' W 005°07'817.8
2017-Aug-19 16:31N 54°58' W 005°20'1019.4
2017-Aug-19 16:01N 54°54' W 005°35'816.3
2017-Aug-19 15:31N 54°51' W 005°48'0 0.1
2017-Aug-19 15:00N 54°51' W 005°48'5 5.3
2017-Aug-19 14:00N 54°54' W 005°40'1020.4
2017-Aug-19 13:30N 54°58' W 005°24'1019.8
2017-Aug-19 13:00N 55°02' W 005°08'610.2
2017-Aug-19 12:26N 54°58' W 005°01'0 0.0
2017-Aug-19 11:56N 54°58' W 005°01'0 0.0
2017-Aug-19 11:29N 54°58' W 005°01'611.2
2017-Aug-19 10:59N 55°02' W 005°08'919.6
2017-Aug-19 10:30N 54°58' W 005°23'919.0
2017-Aug-19 10:00N 54°54' W 005°38'612.5
2017-Aug-19 09:30N 54°51' W 005°48'0 0.0
2017-Aug-19 09:00N 54°51' W 005°48'0 0.0
2017-Aug-19 08:30N 54°51' W 005°48'5 9.0
2017-Aug-19 08:00N 54°53' W 005°41'918.6
2017-Aug-19 07:30N 54°57' W 005°27'918.2
2017-Aug-19 07:00N 55°01' W 005°13'714.0
2017-Aug-19 06:30N 54°58' W 005°02'0 0.7
2017-Aug-19 05:55N 54°58' W 005°01'0 0.0
2017-Aug-19 05:31N 54°58' W 005°01'0 0.0
2017-Aug-19 04:57N 54°58' W 005°01'511.5
2017-Aug-19 04:30N 55°02' W 005°07'815.7
2017-Aug-19 04:01N 54°58' W 005°19'918.9
2017-Aug-19 03:31N 54°54' W 005°34'917.2
2017-Aug-19 03:01N 54°51' W 005°48'0 0.3
2017-Aug-19 02:31N 54°51' W 005°48'0 0.0
2017-Aug-19 02:01N 54°51' W 005°48'0 0.0
2017-Aug-19 01:31N 54°51' W 005°48'0 0.0
2017-Aug-19 01:01N 54°51' W 005°48'4 8.9
2017-Aug-19 00:30N 54°53' W 005°41'918.5
2017-Aug-19 00:01N 54°58' W 005°27'917.7
2017-Aug-18 23:30N 55°01' W 005°13'714.3
2017-Aug-18 23:01N 54°58' W 005°02'1 1.2
2017-Aug-18 22:30N 54°58' W 005°01'0 0.0
2017-Aug-18 21:51N 54°58' W 005°01'0 0.0
2017-Aug-18 21:30N 54°58' W 005°01'0 0.0
2017-Aug-18 21:00N 54°58' W 005°01'5 9.4
2017-Aug-18 20:28N 55°02' W 005°07'817.2
2017-Aug-18 20:00N 54°59' W 005°20'917.8
2017-Aug-18 19:30N 54°55' W 005°33'917.8
2017-Aug-18 19:00N 54°51' W 005°48'0 0.7
2017-Aug-18 18:20N 54°51' W 005°48'0 0.0
2017-Aug-18 17:50N 54°51' W 005°48'1 2.7
2017-Aug-18 17:30N 54°52' W 005°47'1021.0
2017-Aug-18 17:00N 54°56' W 005°31'1122.1
2017-Aug-18 16:30N 55°01' W 005°14'714.3
2017-Aug-18 16:00N 54°59' W 005°02'1 2.2
2017-Aug-18 15:25N 54°58' W 005°01'0 0.0
2017-Aug-18 14:49N 54°58' W 005°01'5 6.1
2017-Aug-18 14:00N 55°02' W 005°06'1121.4
2017-Aug-18 13:30N 54°57' W 005°23'1122.5
2017-Aug-18 13:00N 54°53' W 005°41'4 5.1
2017-Aug-18 12:10N 54°51' W 005°48'0 0.0
2017-Aug-18 11:55N 54°51' W 005°48'0 0.0
2017-Aug-18 11:30N 54°51' W 005°48'612.1
2017-Aug-18 11:00N 54°54' W 005°39'1020.4
2017-Aug-18 10:30N 54°59' W 005°23'1019.4
2017-Aug-18 10:00N 55°02' W 005°07'510.8
2017-Aug-18 09:30N 54°58' W 005°01'0 0.0
2017-Aug-18 09:00N 54°58' W 005°01'0 0.0
2017-Aug-18 08:30N 54°58' W 005°01'510.1
2017-Aug-18 08:00N 55°02' W 005°07'919.0
2017-Aug-18 07:30N 54°58' W 005°22'1019.3
2017-Aug-18 07:00N 54°54' W 005°37'714.0
2017-Aug-18 06:30N 54°51' W 005°48'0 0.0
2017-Aug-18 06:00N 54°51' W 005°48'0 0.0
2017-Aug-18 05:30N 54°51' W 005°48'0 0.7
2017-Aug-18 05:00N 54°51' W 005°48'816.9
2017-Aug-18 04:31N 54°55' W 005°35'1020.1
2017-Aug-18 04:00N 54°59' W 005°19'915.5
2017-Aug-18 03:26N 54°59' W 005°03'2 4.1
2017-Aug-18 02:54N 54°58' W 005°01'0 0.0
2017-Aug-18 02:24N 54°58' W 005°01'0 0.0
2017-Aug-18 01:54N 54°58' W 005°01'0 0.0
2017-Aug-18 01:24N 54°58' W 005°01'0 0.1
2017-Aug-18 01:00N 54°58' W 005°01'610.3
2017-Aug-18 00:28N 55°02' W 005°08'919.2
2017-Aug-18 00:00N 54°58' W 005°22'918.9
2017-Aug-17 23:31N 54°54' W 005°37'714.1
2017-Aug-17 23:01N 54°51' W 005°48'0 0.1
2017-Aug-17 22:31N 54°51' W 005°48'0 0.0
2017-Aug-17 22:00N 54°51' W 005°48'0 0.0
2017-Aug-17 21:30N 54°51' W 005°48'3 5.8
2017-Aug-17 21:00N 54°53' W 005°44'1121.5
2017-Aug-17 20:30N 54°58' W 005°28'1121.8
2017-Aug-17 20:00N 55°02' W 005°10'714.1
2017-Aug-17 19:31N 54°58' W 005°01'0 0.0
2017-Aug-17 19:01N 54°58' W 005°01'0 0.0
2017-Aug-17 18:30N 54°58' W 005°01'0 0.2
2017-Aug-17 18:01N 54°58' W 005°01'713.0
2017-Aug-17 17:30N 55°01' W 005°11'1020.5
2017-Aug-17 17:01N 54°56' W 005°26'1121.3
2017-Aug-17 16:30N 54°53' W 005°44'3 6.0
2017-Aug-17 16:00N 54°51' W 005°48'0 0.0
2017-Aug-17 15:30N 54°51' W 005°48'3 5.3
2017-Aug-17 15:00N 54°53' W 005°44'1020.1
2017-Aug-17 14:30N 54°57' W 005°29'1020.6
2017-Aug-17 14:00N 55°01' W 005°12'612.9
2017-Aug-17 13:30N 54°59' W 005°02'1 2.3
2017-Aug-17 13:00N 54°58' W 005°01'0 0.0
2017-Aug-17 12:30N 54°58' W 005°01'0 0.0
2017-Aug-17 12:00N 54°58' W 005°01'0 0.0
2017-Aug-17 11:30N 54°58' W 005°01'5 9.4
2017-Aug-17 10:58N 55°02' W 005°07'919.1
2017-Aug-17 10:31N 54°58' W 005°21'1019.1
2017-Aug-17 10:01N 54°54' W 005°36'815.3
2017-Aug-17 09:31N 54°51' W 005°48'0 0.3
2017-Aug-17 09:00N 54°51' W 005°48'0 0.0
2017-Aug-17 08:30N 54°51' W 005°48'5 9.2
2017-Aug-17 08:00N 54°54' W 005°41'918.4
2017-Aug-17 07:30N 54°58' W 005°27'918.1
2017-Aug-17 07:00N 55°01' W 005°13'714.4
2017-Aug-17 06:31N 54°58' W 005°02'0 0.6
2017-Aug-17 05:50N 54°58' W 005°01'0 0.0
2017-Aug-17 05:26N 54°58' W 005°01'0 0.0
2017-Aug-17 04:59N 54°58' W 005°01'510.0
2017-Aug-17 04:28N 55°02' W 005°07'817.7
2017-Aug-17 04:01N 54°58' W 005°20'918.8
2017-Aug-17 03:31N 54°55' W 005°35'812.9
2017-Aug-17 02:52N 54°51' W 005°48'0 0.0
2017-Aug-17 02:28N 54°51' W 005°48'0 0.0
2017-Aug-17 01:58N 54°51' W 005°48'0 0.0
2017-Aug-17 01:28N 54°51' W 005°48'0 0.1
2017-Aug-17 01:00N 54°51' W 005°48'714.6
2017-Aug-17 00:31N 54°55' W 005°37'1020.5
2017-Aug-17 00:00N 54°59' W 005°21'1018.1
2017-Aug-16 23:29N 55°01' W 005°04'4 7.0
2017-Aug-16 22:58N 54°58' W 005°01'0 0.0
2017-Aug-16 22:25N 54°58' W 005°01'0 0.0
2017-Aug-16 21:58N 54°58' W 005°01'0 0.0
2017-Aug-16 21:28N 54°58' W 005°01'0 0.0
2017-Aug-16 21:00N 54°58' W 005°01'510.6
2017-Aug-16 20:30N 55°02' W 005°07'918.6
2017-Aug-16 20:00N 54°58' W 005°22'1020.3
2017-Aug-16 19:31N 54°54' W 005°37'713.3
2017-Aug-16 19:00N 54°51' W 005°48'0 0.0
2017-Aug-16 18:30N 54°51' W 005°48'0 0.0
2017-Aug-16 18:00N 54°51' W 005°48'611.6
2017-Aug-16 17:31N 54°54' W 005°39'1020.0
2017-Aug-16 17:00N 54°58' W 005°24'1019.6
2017-Aug-16 16:30N 55°02' W 005°08'611.8
2017-Aug-16 16:00N 54°58' W 005°01'0 0.0
2017-Aug-16 15:30N 54°58' W 005°01'0 0.0
2017-Aug-16 15:00N 54°58' W 005°01'611.6
2017-Aug-16 14:31N 55°02' W 005°08'1020.0
2017-Aug-16 14:01N 54°57' W 005°24'1121.1
2017-Aug-16 13:30N 54°53' W 005°41'5 8.0
2017-Aug-16 12:56N 54°51' W 005°48'0 0.0
2017-Aug-16 12:29N 54°51' W 005°48'0 0.0
2017-Aug-16 12:00N 54°51' W 005°48'510.0
2017-Aug-16 11:31N 54°54' W 005°41'1019.8
2017-Aug-16 11:00N 54°59' W 005°26'1020.4
2017-Aug-16 10:30N 55°02' W 005°09'612.2
2017-Aug-16 10:00N 54°58' W 005°01'0 0.0
2017-Aug-16 09:29N 54°58' W 005°01'0 0.0
2017-Aug-16 08:50N 54°58' W 005°01'0 0.0
2017-Aug-16 08:26N 54°58' W 005°01'511.0
2017-Aug-16 07:57N 55°02' W 005°07'818.3
2017-Aug-16 07:30N 54°58' W 005°20'917.5
2017-Aug-16 07:00N 54°55' W 005°34'816.9
2017-Aug-16 06:30N 54°51' W 005°48'1 1.1
2017-Aug-16 06:01N 54°51' W 005°48'0 0.0
2017-Aug-16 05:31N 54°51' W 005°48'0 0.0
2017-Aug-16 05:01N 54°51' W 005°48'4 7.2
2017-Aug-16 04:30N 54°53' W 005°43'918.6
2017-Aug-16 04:00N 54°57' W 005°29'918.8
2017-Aug-16 03:30N 55°01' W 005°14'714.1
2017-Aug-16 03:00N 54°58' W 005°02'1 2.0
2017-Aug-16 02:30N 54°58' W 005°01'0 0.0
2017-Aug-16 02:00N 54°58' W 005°01'0 0.0
2017-Aug-16 01:30N 54°58' W 005°01'0 0.1
2017-Aug-16 01:00N 54°58' W 005°01'611.8
2017-Aug-16 00:30N 55°02' W 005°09'917.3
2017-Aug-16 00:00N 54°57' W 005°22'1019.2
2017-Aug-15 23:30N 54°54' W 005°37'713.6
2017-Aug-15 23:00N 54°51' W 005°48'0 0.1
2017-Aug-15 22:31N 54°51' W 005°48'0 0.0
2017-Aug-15 22:00N 54°51' W 005°48'0 0.0
2017-Aug-15 21:30N 54°51' W 005°48'0 0.0
2017-Aug-15 21:00N 54°51' W 005°48'4 9.0
2017-Aug-15 20:30N 54°53' W 005°42'816.1
2017-Aug-15 20:01N 54°58' W 005°31'815.6
2017-Aug-15 19:31N 55°02' W 005°18'916.1
2017-Aug-15 18:59N 54°60' W 005°04'3 5.4
2017-Aug-15 18:30N 54°58' W 005°01'0 0.0
2017-Aug-15 18:00N 54°58' W 005°01'0 0.0
2017-Aug-15 17:30N 54°58' W 005°01'5 9.3
2017-Aug-15 16:56N 55°02' W 005°07'818.1
2017-Aug-15 16:31N 54°58' W 005°19'918.1
2017-Aug-15 16:00N 54°54' W 005°33'917.2
2017-Aug-15 15:30N 54°51' W 005°48'0 0.9
2017-Aug-15 15:00N 54°51' W 005°48'0 0.0
2017-Aug-15 14:30N 54°51' W 005°48'5 9.6
2017-Aug-15 14:00N 54°53' W 005°41'816.9
2017-Aug-15 13:30N 54°57' W 005°28'816.9
2017-Aug-15 13:00N 55°00' W 005°14'713.3
2017-Aug-15 12:30N 54°59' W 005°03'2 2.5
2017-Aug-15 11:51N 54°58' W 005°01'0 0.0
2017-Aug-15 11:29N 54°58' W 005°01'5 9.0
2017-Aug-15 10:56N 55°02' W 005°06'716.8
2017-Aug-15 10:30N 54°59' W 005°18'917.2
2017-Aug-15 10:00N 54°55' W 005°32'918.0
2017-Aug-15 09:30N 54°52' W 005°47'1 2.8
2017-Aug-15 09:00N 54°51' W 005°48'0 0.0
2017-Aug-15 08:30N 54°51' W 005°48'4 8.7
2017-Aug-15 08:00N 54°53' W 005°42'917.7
2017-Aug-15 07:31N 54°57' W 005°28'917.7
2017-Aug-15 07:01N 55°01' W 005°14'714.6
2017-Aug-15 06:30N 54°58' W 005°02'1 1.9
2017-Aug-15 06:00N 54°58' W 005°01'0 0.0
2017-Aug-15 05:30N 54°58' W 005°01'0 0.0
2017-Aug-15 05:01N 54°58' W 005°01'510.8
2017-Aug-15 04:31N 55°02' W 005°07'816.5
2017-Aug-15 04:00N 54°58' W 005°20'817.1
2017-Aug-15 03:30N 54°54' W 005°33'917.5
2017-Aug-15 03:01N 54°51' W 005°48'1 1.0
2017-Aug-15 02:30N 54°51' W 005°48'0 0.0
2017-Aug-15 02:01N 54°51' W 005°48'0 0.0
2017-Aug-15 01:30N 54°51' W 005°48'0 0.0
2017-Aug-15 01:01N 54°51' W 005°48'5 9.3
2017-Aug-15 00:30N 54°53' W 005°41'918.9
2017-Aug-15 00:00N 54°57' W 005°26'1019.1
2017-Aug-14 23:30N 55°01' W 005°11'713.7
2017-Aug-14 23:00N 54°58' W 005°01'0 0.2
2017-Aug-14 22:18N 54°58' W 005°01'0 0.0
2017-Aug-14 21:57N 54°58' W 005°01'0 0.0
2017-Aug-14 21:24N 54°58' W 005°01'0 0.1
2017-Aug-14 21:00N 54°58' W 005°01'510.1
2017-Aug-14 20:30N 55°02' W 005°07'817.0
2017-Aug-14 20:00N 54°58' W 005°20'917.8
2017-Aug-14 19:30N 54°55' W 005°34'816.9
2017-Aug-14 19:00N 54°51' W 005°48'0 0.7
2017-Aug-14 18:30N 54°51' W 005°48'0 0.0
2017-Aug-14 18:00N 54°51' W 005°48'0 0.0
2017-Aug-14 17:30N 54°51' W 005°48'611.4
2017-Aug-14 17:00N 54°54' W 005°40'917.4
2017-Aug-14 16:31N 54°58' W 005°26'917.1
2017-Aug-14 16:00N 55°01' W 005°12'714.1
2017-Aug-14 15:30N 54°58' W 005°01'0 0.2
2017-Aug-14 15:00N 54°58' W 005°01'0 0.0
2017-Aug-14 14:30N 54°58' W 005°01'510.2
2017-Aug-14 14:00N 55°02' W 005°07'1019.9
2017-Aug-14 13:30N 54°58' W 005°23'1021.0
2017-Aug-14 13:00N 54°54' W 005°39'611.2
2017-Aug-14 12:30N 54°51' W 005°48'0 0.0
2017-Aug-14 12:00N 54°51' W 005°48'0 0.0
2017-Aug-14 11:30N 54°51' W 005°48'510.2
2017-Aug-14 11:00N 54°54' W 005°40'816.8
2017-Aug-14 10:30N 54°57' W 005°27'917.4
2017-Aug-14 10:00N 55°01' W 005°13'713.9
2017-Aug-14 09:30N 54°58' W 005°02'1 1.6
2017-Aug-14 09:00N 54°58' W 005°01'0 0.0
2017-Aug-14 08:30N 54°58' W 005°01'5 8.5
2017-Aug-14 07:53N 55°02' W 005°07'820.2
2017-Aug-14 07:30N 54°58' W 005°19'1020.3
2017-Aug-14 07:00N 54°54' W 005°36'  

Dump ship's entire track history